Time;durP1;ratioP1;P1;durP2;ratioP2;P2;SDS_P1;SDS_P2;PMS_P1;PMS_P2;Temp;Humidity;BMP_temperature;BMP_pressure;BME280_temperature;BME280_humidity;BME280_pressure;Samples;Min_cycle;Max_cycle;Signal;HPM_P1;HPM_P2
2022/02/12 00:00:42;;;;;;;17.85;11.48;;;0.40;99.90;;;;;;5037641;28;20568;-75
2022/02/12 00:03:10;;;;;;;23.50;13.23;;;0.40;99.90;;;;;;5035338;28;20215;-74
2022/02/12 00:05:38;;;;;;;17.70;12.77;;;0.40;99.90;;;;;;5036859;28;20208;-75
2022/02/12 00:08:06;;;;;;;18.27;11.95;;;0.50;99.90;;;;;;5032019;28;20204;-74
2022/02/12 00:10:33;;;;;;;21.88;12.30;;;0.50;99.90;;;;;;5030237;28;20306;-75
2022/02/12 00:13:01;;;;;;;18.65;12.80;;;0.40;99.90;;;;;;5036827;28;20279;-74
2022/02/12 00:15:28;;;;;;;22.15;13.43;;;0.40;99.90;;;;;;5042569;28;20215;-73
2022/02/12 00:17:56;;;;;;;19.75;12.68;;;0.30;99.90;;;;;;5034919;28;20254;-75
2022/02/12 00:20:23;;;;;;;22.48;13.00;;;0.30;99.90;;;;;;5035941;28;20684;-73
2022/02/12 00:22:50;;;;;;;22.00;13.20;;;0.30;99.90;;;;;;5033387;28;20207;-74
2022/02/12 00:25:18;;;;;;;25.30;13.02;;;0.30;99.90;;;;;;5034499;28;20242;-74
2022/02/12 00:27:45;;;;;;;25.75;14.57;;;0.40;99.90;;;;;;5025874;28;20299;-75
2022/02/12 00:30:12;;;;;;;18.70;12.75;;;0.30;99.90;;;;;;5018657;28;20230;-75
2022/02/12 00:32:39;;;;;;;21.73;14.25;;;0.30;99.90;;;;;;5044150;28;20215;-74
2022/02/12 00:35:06;;;;;;;34.45;16.33;;;0.30;99.90;;;;;;5054869;28;20210;-75
2022/02/12 00:37:33;;;;;;;26.50;15.55;;;0.20;99.90;;;;;;5045745;28;20191;-74
2022/02/12 00:40:01;;;;;;;18.92;12.70;;;0.20;99.90;;;;;;5035685;28;20215;-75
2022/02/12 00:42:29;;;;;;;21.40;12.70;;;0.20;99.90;;;;;;5044373;28;20207;-74
2022/02/12 00:44:56;;;;;;;27.10;14.48;;;0.10;99.90;;;;;;5049357;28;20593;-76
2022/02/12 00:47:24;;;;;;;23.48;13.55;;;0.10;99.90;;;;;;5035423;28;20222;-74
2022/02/12 00:49:51;;;;;;;20.65;14.55;;;0.10;99.90;;;;;;5022989;28;20244;-75
2022/02/12 00:52:18;;;;;;;23.88;12.40;;;0.10;99.90;;;;;;5041240;28;20218;-74
2022/02/12 00:54:45;;;;;;;21.60;14.10;;;0.00;99.90;;;;;;5046886;28;20670;-75
2022/02/12 00:57:12;;;;;;;27.33;14.50;;;0.00;99.90;;;;;;5036347;28;20298;-76
2022/02/12 00:59:41;;;;;;;20.15;14.63;;;0.00;99.90;;;;;;5045536;28;20207;-76
2022/02/12 01:02:08;;;;;;;26.77;13.95;;;0.00;99.90;;;;;;5053367;28;20210;-76
2022/02/12 01:04:35;;;;;;;24.95;14.15;;;0.00;99.90;;;;;;5047082;28;20211;-77
2022/02/12 01:07:02;;;;;;;25.60;14.23;;;0.00;99.90;;;;;;5048086;28;20204;-76
2022/02/12 01:09:29;;;;;;;25.85;15.70;;;0.00;99.90;;;;;;5047782;28;20686;-76
2022/02/12 01:11:56;;;;;;;21.23;13.77;;;0.00;99.90;;;;;;5035968;28;20290;-76
2022/02/12 01:14:24;;;;;;;24.08;13.65;;;0.00;99.90;;;;;;5022241;28;20232;-77
2022/02/12 01:16:52;;;;;;;21.40;14.00;;;0.00;99.90;;;;;;5023224;28;20242;-77
2022/02/12 01:19:19;;;;;;;22.23;14.48;;;-0.10;99.90;;;;;;5025237;28;20639;-75
2022/02/12 01:21:46;;;;;;;20.90;14.82;;;-0.10;99.90;;;;;;5029767;28;20212;-75
2022/02/12 01:24:13;;;;;;;20.23;13.45;;;-0.20;99.90;;;;;;5042784;28;20207;-77
2022/02/12 01:26:39;;;;;;;26.08;15.70;;;-0.20;99.90;;;;;;5042244;28;20217;-76
2022/02/12 01:29:06;;;;;;;23.67;14.02;;;-0.20;99.90;;;;;;5031276;28;20226;-75
2022/02/12 01:31:34;;;;;;;25.30;13.63;;;-0.30;99.90;;;;;;5032659;28;20216;-76
2022/02/12 01:34:02;;;;;;;26.42;14.07;;;-0.30;99.90;;;;;;5029904;28;20211;-77
2022/02/12 01:36:29;;;;;;;21.70;13.70;;;-0.30;99.90;;;;;;5034070;28;20234;-76
2022/02/12 01:38:56;;;;;;;24.08;13.85;;;-0.30;99.90;;;;;;5043885;28;20207;-76
2022/02/12 01:41:23;;;;;;;20.88;12.40;;;-0.30;99.90;;;;;;5033243;28;20263;-76
2022/02/12 01:43:50;;;;;;;17.20;12.15;;;-0.30;99.90;;;;;;5021658;28;20416;-77
2022/02/12 01:46:17;;;;;;;19.45;12.73;;;-0.20;99.90;;;;;;5026114;28;20245;-76
2022/02/12 01:48:44;;;;;;;22.08;12.27;;;-0.30;99.90;;;;;;5042385;28;20214;-75
2022/02/12 01:51:13;;;;;;;22.38;12.30;;;-0.30;99.90;;;;;;5042416;28;20235;-76
2022/02/12 01:53:40;;;;;;;21.17;12.75;;;-0.30;99.90;;;;;;5030425;28;20234;-76
2022/02/12 01:56:07;;;;;;;17.40;11.68;;;-0.30;99.90;;;;;;5030860;28;20667;-77
2022/02/12 01:58:34;;;;;;;21.92;10.88;;;-0.40;99.90;;;;;;5040805;28;20244;-76
2022/02/12 02:01:01;;;;;;;20.65;12.25;;;-0.40;99.90;;;;;;5035447;28;20223;-77
2022/02/12 02:03:28;;;;;;;18.80;11.50;;;-0.50;99.90;;;;;;5024621;28;20236;-75
2022/02/12 02:05:55;;;;;;;17.85;11.07;;;-0.40;99.90;;;;;;5021182;28;20211;-78
2022/02/12 02:08:24;;;;;;;22.65;12.70;;;-0.50;99.90;;;;;;5020854;28;20233;-76
2022/02/12 02:10:53;;;;;;;22.67;12.35;;;-0.60;99.90;;;;;;5020629;28;20299;-77
2022/02/12 02:13:25;;;;;;;16.05;11.70;;;-0.60;99.90;;;;;;5022417;28;20214;-78
2022/02/12 02:15:51;;;;;;;20.55;12.00;;;-0.50;99.90;;;;;;5024128;28;20294;-77
2022/02/12 02:18:18;;;;;;;19.13;11.27;;;-0.50;99.90;;;;;;5023888;28;20230;-77
2022/02/12 02:20:45;;;;;;;20.40;12.75;;;-0.50;99.90;;;;;;5023896;28;20235;-77
2022/02/12 02:23:14;;;;;;;19.42;12.80;;;-0.50;99.90;;;;;;5023588;28;20393;-77
2022/02/12 02:25:41;;;;;;;19.27;9.82;;;-0.60;99.90;;;;;;5022062;28;20229;-76
2022/02/12 02:28:08;;;;;;;20.25;11.18;;;-0.60;99.90;;;;;;5022343;28;20584;-76
2022/02/12 02:30:35;;;;;;;16.98;10.95;;;-0.60;99.90;;;;;;5021376;28;20230;-76
2022/02/12 02:33:02;;;;;;;13.88;10.77;;;-0.60;99.90;;;;;;5020134;28;20219;-77
2022/02/12 02:35:29;;;;;;;19.45;13.07;;;-0.60;99.90;;;;;;5027888;28;20220;-77
2022/02/12 02:37:56;;;;;;;20.45;10.90;;;-0.60;99.90;;;;;;5038872;28;20216;-77
2022/02/12 02:40:24;;;;;;;17.63;11.55;;;-0.60;99.90;;;;;;5032955;28;20227;-75
2022/02/12 02:42:53;;;;;;;19.42;11.63;;;-0.60;99.90;;;;;;5016654;28;20226;-75
2022/02/12 02:45:20;;;;;;;21.83;12.88;;;-0.60;99.90;;;;;;5024593;28;20211;-76
2022/02/12 02:47:47;;;;;;;17.50;11.98;;;-0.60;99.90;;;;;;5025695;28;20247;-77
2022/02/12 02:56:02;;;;;;;25.63;11.80;;;-0.50;99.90;;;;;;5018802;28;20274;-76
2022/02/12 02:58:31;;;;;;;24.00;13.02;;;-0.50;99.90;;;;;;5016693;28;20248;-76
2022/02/12 03:00:58;;;;;;;22.70;12.00;;;-0.50;99.90;;;;;;5029853;28;20222;-76
2022/02/12 03:03:26;;;;;;;24.15;12.27;;;-0.50;99.90;;;;;;5035167;28;20278;-76
2022/02/12 03:05:53;;;;;;;21.20;12.15;;;-0.50;99.90;;;;;;5027951;28;20223;-77
2022/02/12 03:08:20;;;;;;;17.85;12.80;;;-0.50;99.90;;;;;;5015681;28;20214;-77
2022/02/12 03:10:48;;;;;;;19.27;11.07;;;-0.50;99.90;;;;;;5016804;28;20218;-77
2022/02/12 03:13:15;;;;;;;21.83;13.15;;;-0.50;99.90;;;;;;5018035;28;20241;-75
2022/02/12 03:15:51;;;;;;;21.58;12.57;;;-0.50;99.90;;;;;;5015874;28;20206;-76
2022/02/12 03:18:18;;;;;;;14.73;10.48;;;-0.60;99.90;;;;;;5015081;28;20695;-75
2022/02/12 03:20:45;;;;;;;21.00;12.05;;;-0.50;99.90;;;;;;5014652;28;20239;-77
2022/02/12 03:23:12;;;;;;;18.10;11.52;;;-0.50;99.90;;;;;;5019954;28;20222;-75
2022/02/12 03:25:39;;;;;;;23.83;12.40;;;-0.50;99.90;;;;;;5043037;28;20274;-76
2022/02/12 03:28:08;;;;;;;20.88;12.23;;;-0.50;99.90;;;;;;5054284;28;20269;-76
2022/02/12 03:30:37;;;;;;;19.98;11.23;;;-0.60;99.90;;;;;;5053646;28;20230;-74
2022/02/12 03:33:04;;;;;;;17.35;12.20;;;-0.60;99.90;;;;;;5054217;28;20289;-76
2022/02/12 03:35:32;;;;;;;20.38;11.43;;;-0.70;99.90;;;;;;5033987;28;20240;-75
2022/02/12 03:38:09;;;;;;;18.02;12.65;;;-0.80;99.90;;;;;;5019408;28;20328;-75
2022/02/12 03:40:39;;;;;;;18.67;10.75;;;-0.80;99.90;;;;;;5031700;28;20260;-76
2022/02/12 03:43:08;;;;;;;16.83;9.50;;;-0.90;99.90;;;;;;5044392;28;20270;-75
2022/02/12 03:45:35;;;;;;;15.23;10.65;;;-1.00;99.90;;;;;;5034744;28;20292;-76
2022/02/12 03:48:02;;;;;;;15.88;9.80;;;-1.00;99.90;;;;;;5028371;28;20211;-76
2022/02/12 03:50:31;;;;;;;14.98;9.65;;;-1.00;99.90;;;;;;5017205;28;20265;-76
2022/02/12 03:52:59;;;;;;;22.77;9.80;;;-1.00;99.90;;;;;;5014760;28;20237;-75
2022/02/12 03:55:25;;;;;;;17.02;9.55;;;-1.10;99.90;;;;;;5014347;28;20207;-76
2022/02/12 03:57:53;;;;;;;14.88;9.80;;;-1.20;99.90;;;;;;5018543;28;20210;-76
2022/02/12 04:00:22;;;;;;;20.52;9.77;;;-1.20;99.90;;;;;;5014146;28;20235;-76
2022/02/12 04:02:49;;;;;;;20.98;10.88;;;-1.20;99.90;;;;;;5016638;28;20588;-75
2022/02/12 04:05:17;;;;;;;14.57;8.55;;;-1.20;99.90;;;;;;5023654;28;20302;-75
2022/02/12 04:07:44;;;;;;;19.92;9.45;;;-1.20;99.90;;;;;;5036088;28;20257;-75
2022/02/12 04:10:13;;;;;;;19.50;11.00;;;-1.20;99.90;;;;;;5035477;28;20225;-75
2022/02/12 04:12:40;;;;;;;24.92;11.43;;;-1.20;99.90;;;;;;5035832;28;20316;-75
2022/02/12 04:15:09;;;;;;;17.80;10.40;;;-1.30;99.90;;;;;;5031711;28;20293;-75
2022/02/12 04:17:38;;;;;;;20.13;10.30;;;-1.30;99.90;;;;;;5016033;28;20206;-76
2022/02/12 04:20:06;;;;;;;15.52;10.80;;;-1.40;99.90;;;;;;5016247;28;20219;-75
2022/02/12 04:22:34;;;;;;;25.65;12.15;;;-1.40;99.90;;;;;;5019407;28;20238;-75
2022/02/12 04:25:01;;;;;;;17.98;11.25;;;-1.30;99.90;;;;;;5017958;28;20628;-76
2022/02/12 04:27:28;;;;;;;19.27;12.32;;;-1.30;99.90;;;;;;5035426;28;20666;-76
2022/02/12 04:29:55;;;;;;;19.38;11.20;;;-1.30;99.90;;;;;;5039852;28;20225;-74
2022/02/12 04:32:22;;;;;;;25.45;12.50;;;-1.40;99.90;;;;;;5052047;28;20310;-74
2022/02/12 04:34:51;;;;;;;19.48;11.85;;;-1.30;99.90;;;;;;5054243;28;20214;-75
2022/02/12 04:37:18;;;;;;;21.25;11.38;;;-1.30;99.90;;;;;;5048308;28;20208;-74
2022/02/12 04:39:46;;;;;;;19.70;12.32;;;-1.30;99.90;;;;;;5040016;28;20741;-75
2022/02/12 04:42:14;;;;;;;18.70;11.25;;;-1.40;99.90;;;;;;5018351;28;20821;-75
2022/02/12 04:44:41;;;;;;;20.08;12.10;;;-1.40;99.90;;;;;;5023692;28;20207;-75
2022/02/12 04:47:09;;;;;;;21.70;12.32;;;-1.50;99.90;;;;;;5041781;28;20213;-76
2022/02/12 04:49:36;;;;;;;21.42;12.05;;;-1.40;99.90;;;;;;5038464;28;20285;-74
2022/02/12 04:52:06;;;;;;;24.10;13.25;;;-1.40;99.90;;;;;;5023031;22;20241;-75
2022/02/12 04:54:33;;;;;;;19.25;12.13;;;-1.50;99.90;;;;;;4996938;28;20211;-73
2022/02/12 04:57:01;;;;;;;23.13;14.05;;;-1.50;99.90;;;;;;5015778;28;20675;-74
2022/02/12 04:59:29;;;;;;;21.25;13.00;;;-1.60;99.90;;;;;;5016056;28;20643;-73
2022/02/12 05:01:56;;;;;;;25.60;13.60;;;-1.60;99.90;;;;;;4996836;28;20251;-73
2022/02/12 05:04:23;;;;;;;21.65;13.63;;;-1.70;99.90;;;;;;5005638;28;20251;-74
2022/02/12 05:06:51;;;;;;;17.35;11.50;;;-1.70;99.90;;;;;;5018400;28;20235;-73
2022/02/12 05:09:20;;;;;;;23.42;13.43;;;-1.70;99.90;;;;;;5020937;28;20241;-76
2022/02/12 05:11:50;;;;;;;22.95;13.70;;;-1.70;99.90;;;;;;5006177;28;20227;-74
2022/02/12 05:14:18;;;;;;;24.85;13.40;;;-1.70;99.90;;;;;;5002427;28;20236;-74
2022/02/12 05:16:45;;;;;;;24.00;14.05;;;-1.70;99.90;;;;;;5011405;28;20208;-76
2022/02/12 05:19:12;;;;;;;25.90;13.15;;;-1.60;99.90;;;;;;5004003;28;20215;-76
2022/02/12 05:21:40;;;;;;;25.08;13.27;;;-1.60;99.90;;;;;;5014238;28;20325;-74
2022/02/12 05:24:07;;;;;;;20.05;12.82;;;-1.60;99.90;;;;;;5018514;28;20268;-74
2022/02/12 05:26:36;;;;;;;22.50;12.98;;;-1.60;99.90;;;;;;5009647;28;20671;-78
2022/02/12 05:29:02;;;;;;;32.97;14.57;;;-1.60;99.90;;;;;;5012761;28;20230;-79
2022/02/12 05:31:29;;;;;;;28.23;15.05;;;-1.60;99.90;;;;;;5029337;28;20249;-75
2022/02/12 05:33:56;;;;;;;27.83;15.45;;;-1.60;99.90;;;;;;5019976;28;20234;-77
2022/02/12 05:36:23;;;;;;;24.35;14.25;;;-1.60;99.90;;;;;;4999885;28;20206;-76
2022/02/12 05:38:50;;;;;;;23.70;14.40;;;-1.60;99.90;;;;;;4996799;28;20250;-76
2022/02/12 05:41:17;;;;;;;23.30;13.43;;;-1.60;99.90;;;;;;5011324;28;20318;-76
2022/02/12 05:43:46;;;;;;;23.27;15.30;;;-1.60;99.90;;;;;;5017942;28;20305;-76
2022/02/12 05:46:13;;;;;;;22.52;14.02;;;-1.60;99.90;;;;;;5018524;28;20655;-78
2022/02/12 05:48:40;;;;;;;23.40;13.93;;;-1.60;99.90;;;;;;5016857;28;20251;-77
2022/02/12 05:51:07;;;;;;;24.00;14.23;;;-1.60;99.90;;;;;;5026861;28;20305;-76
2022/02/12 05:53:35;;;;;;;23.58;14.88;;;-1.60;99.90;;;;;;5019324;28;20321;-77
2022/02/12 05:56:03;;;;;;;23.92;15.23;;;-1.70;99.90;;;;;;5002791;28;20576;-75
2022/02/12 05:58:30;;;;;;;26.27;14.25;;;-1.70;99.90;;;;;;4995647;28;20211;-76
2022/02/12 06:00:58;;;;;;;26.92;14.45;;;-1.70;99.90;;;;;;4995447;28;20228;-76
2022/02/12 06:03:25;;;;;;;27.88;15.52;;;-1.80;99.90;;;;;;4998301;28;20296;-76
2022/02/12 06:05:52;;;;;;;25.60;16.17;;;-1.80;99.90;;;;;;5010699;28;20213;-76
2022/02/12 06:08:19;;;;;;;28.63;15.13;;;-1.80;99.90;;;;;;5016808;28;20211;-77
2022/02/12 06:10:46;;;;;;;22.00;14.23;;;-1.70;99.90;;;;;;5016155;28;20238;-78
2022/02/12 06:13:13;;;;;;;23.52;13.60;;;-1.80;99.90;;;;;;5017030;28;20615;-75
2022/02/12 06:15:40;;;;;;;25.30;14.50;;;-1.80;99.90;;;;;;5007586;28;20211;-78
2022/02/12 06:18:08;;;;;;;18.95;13.32;;;-1.80;99.90;;;;;;4999749;28;20208;-74
2022/02/12 06:20:36;;;;;;;24.35;15.40;;;-1.80;99.90;;;;;;5009986;28;20226;-80
2022/02/12 06:23:03;;;;;;;27.88;15.85;;;-1.80;99.90;;;;;;5004004;28;20262;-75
2022/02/12 06:25:29;;;;;;;24.55;14.45;;;-1.80;99.90;;;;;;5003289;28;20207;-75
2022/02/12 06:27:57;;;;;;;21.88;13.93;;;-1.80;99.90;;;;;;5014806;28;20290;-76
2022/02/12 06:30:24;;;;;;;22.40;14.27;;;-1.80;99.90;;;;;;5014330;28;20296;-75
2022/02/12 06:32:51;;;;;;;25.13;13.35;;;-1.90;99.90;;;;;;5013818;28;20607;-76
2022/02/12 06:35:19;;;;;;;24.30;13.65;;;-1.80;99.90;;;;;;5014842;28;20210;-75
2022/02/12 06:37:46;;;;;;;36.85;15.25;;;-1.70;99.90;;;;;;5014635;28;20214;-75
2022/02/12 06:40:14;;;;;;;26.38;15.30;;;-1.70;99.90;;;;;;5014904;28;20227;-77
2022/02/12 06:42:42;;;;;;;25.67;15.93;;;-1.70;99.90;;;;;;5014859;28;20276;-77
2022/02/12 06:45:10;;;;;;;25.63;14.75;;;-1.70;99.90;;;;;;5010033;28;20295;-76
2022/02/12 06:47:39;;;;;;;29.65;14.25;;;-1.70;99.90;;;;;;4976579;28;20307;-77
2022/02/12 06:50:06;;;;;;;28.38;17.27;;;-1.60;99.90;;;;;;4986104;28;20313;-77
2022/02/12 06:52:35;;;;;;;24.17;14.75;;;-1.60;99.90;;;;;;5017625;28;20311;-77
2022/02/12 06:55:01;;;;;;;29.17;17.13;;;-1.50;99.90;;;;;;5022171;28;20204;-76
2022/02/12 06:57:28;;;;;;;23.52;16.08;;;-1.50;99.90;;;;;;5029418;28;20278;-75
2022/02/12 06:59:55;;;;;;;31.35;16.50;;;-1.50;99.90;;;;;;5025254;28;20207;-75
2022/02/12 07:02:22;;;;;;;39.33;16.88;;;-1.40;99.90;;;;;;4996402;28;20215;-75
2022/02/12 07:04:49;;;;;;;42.83;16.90;;;-1.40;99.90;;;;;;4997428;28;20199;-75
2022/02/12 07:07:16;;;;;;;31.92;17.85;;;-1.40;99.90;;;;;;5000291;28;20273;-76
2022/02/12 07:09:44;;;;;;;28.35;16.85;;;-1.40;99.90;;;;;;5000453;28;20217;-78
2022/02/12 07:12:11;;;;;;;28.52;15.50;;;-1.40;99.90;;;;;;5015363;28;20255;-75
2022/02/12 07:14:38;;;;;;;30.08;17.05;;;-1.40;99.90;;;;;;5018036;28;20236;-76
2022/02/12 07:17:05;;;;;;;25.13;16.05;;;-1.40;99.90;;;;;;4997500;28;20217;-76
2022/02/12 07:19:32;;;;;;;27.52;17.10;;;-1.30;99.90;;;;;;4996754;28;20679;-77
2022/02/12 07:21:59;;;;;;;24.70;15.98;;;-1.30;99.90;;;;;;4996467;28;20263;-76
2022/02/12 07:24:26;;;;;;;29.80;16.52;;;-1.30;99.90;;;;;;5016559;28;20369;-77
2022/02/12 07:26:54;;;;;;;30.50;16.70;;;-1.30;99.90;;;;;;5021137;28;20211;-77
2022/02/12 07:29:21;;;;;;;24.05;16.38;;;-1.30;99.90;;;;;;4999803;28;20222;-78
2022/02/12 07:31:48;;;;;;;28.38;17.13;;;-1.20;99.90;;;;;;4995438;28;20261;-77
2022/02/12 07:34:16;;;;;;;31.60;17.85;;;-1.20;99.90;;;;;;4994045;28;20320;-77
2022/02/12 07:36:43;;;;;;;27.05;17.13;;;-1.10;99.90;;;;;;4994354;28;20212;-76
2022/02/12 07:39:10;;;;;;;31.63;17.33;;;-1.10;99.90;;;;;;5008688;28;20263;-76
2022/02/12 07:41:37;;;;;;;33.60;17.15;;;-1.00;99.90;;;;;;5013584;28;20326;-78
2022/02/12 07:44:06;;;;;;;24.63;15.30;;;-1.00;99.90;;;;;;5005918;28;20196;-77
2022/02/12 07:46:32;;;;;;;30.80;17.67;;;-0.80;99.90;;;;;;4995137;28;20237;-77
2022/02/12 07:48:59;;;;;;;29.27;17.10;;;-0.70;99.90;;;;;;5002662;28;20213;-77
2022/02/12 07:51:26;;;;;;;26.85;16.50;;;-0.70;99.90;;;;;;5010296;28;20238;-77
2022/02/12 07:53:53;;;;;;;35.53;17.90;;;-0.60;99.90;;;;;;5020588;28;20227;-78
2022/02/12 07:56:20;;;;;;;30.00;16.48;;;-0.50;99.90;;;;;;5028659;28;20215;-77
2022/02/12 07:58:48;;;;;;;28.27;16.95;;;-0.50;99.90;;;;;;5015099;28;20212;-77
2022/02/12 08:01:16;;;;;;;25.80;14.45;;;-0.50;99.90;;;;;;5001183;28;20231;-77
2022/02/12 08:03:44;;;;;;;25.20;16.00;;;-0.50;99.90;;;;;;5007205;28;20205;-77
2022/02/12 08:08:52;;;;;;;25.90;16.75;;;-0.30;99.90;;;;;;5012769;28;20211;-76
2022/02/12 08:11:28;;;;;;;23.65;15.57;;;-0.30;99.90;;;;;;5000008;28;20242;-77
2022/02/12 08:13:55;;;;;;;26.23;15.82;;;-0.20;99.90;;;;;;5009611;28;20585;-76
2022/02/12 08:16:24;;;;;;;31.25;16.27;;;-0.10;99.90;;;;;;5019949;28;20221;-77
2022/02/12 08:18:51;;;;;;;26.88;15.52;;;0.00;99.90;;;;;;5024858;28;20206;-74
2022/02/12 08:21:18;;;;;;;25.00;16.00;;;0.10;99.90;;;;;;5025323;28;20272;-76
2022/02/12 08:23:44;;;;;;;22.08;15.25;;;0.10;99.90;;;;;;5007972;28;20201;-77
2022/02/12 08:26:11;;;;;;;27.75;15.35;;;0.20;99.90;;;;;;5001558;28;20218;-77
2022/02/12 08:28:38;;;;;;;23.50;14.15;;;0.30;99.90;;;;;;4997267;28;20220;-79
2022/02/12 08:31:05;;;;;;;22.00;15.55;;;0.40;99.90;;;;;;4997502;28;20287;-79
2022/02/12 08:33:34;;;;;;;23.40;14.60;;;0.30;99.30;;;;;;4995991;28;20235;-76
2022/02/12 08:36:00;;;;;;;22.02;15.02;;;0.40;98.70;;;;;;5010863;28;20237;-75
2022/02/12 08:38:27;;;;;;;25.25;14.57;;;0.40;98.10;;;;;;5007620;28;20208;-75
2022/02/12 08:40:55;;;;;;;23.63;15.75;;;0.40;96.90;;;;;;4995444;28;20249;-77
2022/02/12 08:43:22;;;;;;;21.10;13.75;;;0.40;96.80;;;;;;4995541;28;20216;-77
2022/02/12 08:45:49;;;;;;;21.45;13.05;;;0.60;96.50;;;;;;4996072;28;20200;-76
2022/02/12 08:48:16;;;;;;;20.45;13.55;;;0.60;95.40;;;;;;4995013;28;20215;-74
2022/02/12 08:50:45;;;;;;;26.42;13.45;;;0.80;95.50;;;;;;5001821;28;20321;-75
2022/02/12 08:53:12;;;;;;;19.52;12.43;;;0.90;94.50;;;;;;5005645;28;20219;-76
2022/02/12 08:55:38;;;;;;;23.67;12.90;;;0.90;93.60;;;;;;5008572;28;20697;-75
2022/02/12 08:58:05;;;;;;;20.10;12.52;;;1.00;92.80;;;;;;4995554;28;20212;-78
2022/02/12 09:00:33;;;;;;;24.40;12.93;;;1.10;92.60;;;;;;5000535;28;20686;-76
2022/02/12 09:03:00;;;;;;;19.08;12.07;;;1.20;91.40;;;;;;5013098;28;20204;-76
2022/02/12 09:05:27;;;;;;;17.52;12.13;;;1.20;91.10;;;;;;5008043;28;20211;-76
2022/02/12 09:07:56;;;;;;;17.25;11.43;;;1.30;90.20;;;;;;4994511;28;20258;-75
2022/02/12 09:10:22;;;;;;;21.70;12.00;;;1.40;89.50;;;;;;4995833;28;20247;-76
2022/02/12 09:12:49;;;;;;;18.02;11.60;;;1.50;89.10;;;;;;5001893;28;20228;-76
2022/02/12 09:15:16;;;;;;;19.67;11.40;;;1.60;88.20;;;;;;5000436;28;20811;-75
2022/02/12 09:17:43;;;;;;;19.85;11.68;;;1.70;86.10;;;;;;5002426;28;20605;-77
2022/02/12 09:20:11;;;;;;;15.60;9.20;;;1.70;85.00;;;;;;4997701;28;20236;-76
2022/02/12 09:22:38;;;;;;;16.83;10.65;;;1.80;82.80;;;;;;5001042;28;20212;-76
2022/02/12 09:25:08;;;;;;;14.88;9.50;;;2.00;81.30;;;;;;5023542;28;20247;-77
2022/02/12 09:27:35;;;;;;;16.20;9.48;;;2.10;79.70;;;;;;5013989;28;20308;-76
2022/02/12 09:30:04;;;;;;;13.15;8.80;;;2.20;77.20;;;;;;5009689;28;20690;-76
2022/02/12 09:32:31;;;;;;;16.77;9.05;;;2.20;76.00;;;;;;5002535;28;20572;-76
2022/02/12 09:34:58;;;;;;;18.25;9.68;;;2.30;76.20;;;;;;5004793;28;20284;-78
2022/02/12 09:37:25;;;;;;;16.17;8.52;;;2.40;75.00;;;;;;5004554;28;20300;-76
2022/02/12 09:39:52;;;;;;;12.20;8.07;;;2.60;74.70;;;;;;5003249;28;20221;-76
2022/02/12 09:42:22;;;;;;;10.27;7.50;;;2.70;71.00;;;;;;5001801;28;20229;-78
2022/02/12 09:44:49;;;;;;;10.70;7.00;;;2.90;71.20;;;;;;5007766;28;20268;-79
2022/02/12 09:47:32;;;;;;;14.45;7.05;;;3.10;70.00;;;;;;5002016;28;20627;-76
2022/02/12 09:49:59;;;;;;;10.10;6.53;;;3.10;65.40;;;;;;5006939;28;20202;-76
2022/02/12 09:52:30;;;;;;;15.57;6.95;;;3.20;64.60;;;;;;5022784;28;20219;-76
2022/02/12 09:54:57;;;;;;;11.07;6.50;;;3.30;64.10;;;;;;5008167;28;20438;-76
2022/02/12 09:57:25;;;;;;;11.10;6.43;;;3.30;62.20;;;;;;5002971;28;20557;-76
2022/02/12 09:59:58;;;;;;;10.60;6.75;;;3.40;62.90;;;;;;5000187;28;20205;-76
2022/02/12 10:02:25;;;;;;;10.95;6.28;;;3.50;62.50;;;;;;4999421;28;20205;-76
2022/02/12 10:05:16;;;;;;;16.42;6.97;;;3.50;61.20;;;;;;5000033;28;20219;-76
2022/02/12 10:07:43;;;;;;;8.68;5.97;;;3.60;60.90;;;;;;5003393;28;20208;-76
2022/02/12 10:10:15;;;;;;;13.30;6.10;;;3.70;60.10;;;;;;5008084;28;20204;-76
2022/02/12 10:12:43;;;;;;;12.40;6.50;;;3.80;60.00;;;;;;5005703;28;20227;-75
2022/02/12 10:15:23;;;;;;;15.57;5.93;;;4.00;59.70;;;;;;5004671;28;20221;-76
2022/02/12 10:17:52;;;;;;;9.55;6.45;;;4.10;59.20;;;;;;5016579;28;20204;-75
2022/02/12 10:20:28;;;;;;;15.10;6.10;;;4.10;57.70;;;;;;5019016;28;20228;-77
2022/02/12 10:23:03;;;;;;;13.05;7.15;;;4.10;57.50;;;;;;5011553;28;20193;-78
2022/02/12 10:25:30;;;;;;;13.65;6.43;;;3.90;57.90;;;;;;4985044;28;20278;-75
2022/02/12 10:27:58;;;;;;;11.05;5.78;;;4.00;57.80;;;;;;4998682;28;20654;-77
2022/02/12 10:30:26;;;;;;;12.45;6.22;;;4.20;57.70;;;;;;5001333;28;20719;-76
2022/02/12 10:32:56;;;;;;;12.00;6.72;;;4.30;57.20;;;;;;5020345;28;20287;-75
2022/02/12 10:35:23;;;;;;;11.35;6.30;;;4.20;55.90;;;;;;5018895;28;20319;-76
2022/02/12 10:37:51;;;;;;;11.88;6.70;;;4.20;56.00;;;;;;5020750;28;20311;-75
2022/02/12 10:40:18;;;;;;;8.07;6.38;;;4.40;56.60;;;;;;5028691;28;20224;-78
2022/02/12 10:42:46;;;;;;;16.95;6.53;;;4.50;55.30;;;;;;5009304;28;20208;-76
2022/02/12 10:45:18;;;;;;;14.00;5.75;;;4.50;55.90;;;;;;5002453;28;20205;-78
2022/02/12 10:47:46;;;;;;;11.50;6.75;;;4.50;55.40;;;;;;4995593;28;20224;-74
2022/02/12 10:50:13;;;;;;;12.93;6.55;;;4.60;55.90;;;;;;5014291;28;20352;-76
2022/02/12 10:52:42;;;;;;;8.05;5.45;;;4.50;55.60;;;;;;5016510;22;20315;-76
2022/02/12 10:55:31;;;;;;;;;;;;;;;;;;;;;
2022/02/12 10:58:00;;;;;;;13.52;6.43;;;4.60;55.00;;;;;;4998038;28;20205;-75
2022/02/12 11:00:30;;;;;;;14.60;6.47;;;4.70;55.80;;;;;;5005022;28;20216;-76
2022/02/12 11:02:59;;;;;;;10.70;6.05;;;4.90;55.20;;;;;;4975739;28;20300;-75
2022/02/12 11:05:28;;;;;;;7.97;4.65;;;4.90;55.20;;;;;;4975544;28;20216;-74
2022/02/12 11:07:55;;;;;;;7.82;5.68;;;4.80;52.50;;;;;;4975289;28;20579;-75
2022/02/12 11:10:23;;;;;;;9.23;5.97;;;4.90;52.20;;;;;;4975185;28;20556;-76
2022/02/12 11:12:51;;;;;;;17.55;5.90;;;5.10;51.70;;;;;;4975472;28;20233;-76
2022/02/12 11:15:18;;;;;;;9.45;6.78;;;5.30;51.40;;;;;;4974639;28;20650;-77
2022/02/12 11:17:48;;;;;;;13.32;6.63;;;5.40;51.00;;;;;;4977703;28;20297;-75
2022/02/12 11:20:15;;;;;;;9.82;6.65;;;5.50;51.40;;;;;;4978790;28;20581;-74
2022/02/12 11:22:47;;;;;;;11.82;5.55;;;5.60;50.40;;;;;;4979416;28;20226;-74
2022/02/12 11:25:41;;;;;;;10.07;5.95;;;5.50;51.10;;;;;;4984573;28;20253;-74
2022/02/12 11:28:11;;;;;;;11.80;6.55;;;5.50;52.40;;;;;;4934902;28;20209;-75
2022/02/12 11:30:39;;;;;;;7.35;5.22;;;5.40;52.00;;;;;;4979659;28;20221;-75
2022/02/12 11:33:19;;;;;;;8.82;5.97;;;5.50;52.30;;;;;;4980461;28;20293;-78
2022/02/12 11:36:20;;;;;;;9.80;5.72;;;5.60;51.60;;;;;;4986256;28;20218;-76
2022/02/12 11:38:49;;;;;;;9.75;5.90;;;5.70;50.60;;;;;;4980215;28;20285;-78
2022/02/12 11:41:24;;;;;;;9.27;5.63;;;5.80;50.40;;;;;;4986971;28;20263;-76
2022/02/12 11:43:55;;;;;;;13.32;6.22;;;5.80;49.60;;;;;;5000152;28;20291;-77
2022/02/12 11:46:44;;;;;;;10.27;5.53;;;6.00;49.60;;;;;;4986359;28;20210;-79
2022/02/12 11:49:27;;;;;;;9.75;6.60;;;6.00;49.60;;;;;;4980381;28;20297;-76
2022/02/12 11:51:54;;;;;;;9.75;5.40;;;6.00;49.90;;;;;;4979031;28;20245;-75
2022/02/12 11:54:47;;;;;;;6.82;5.40;;;6.00;49.50;;;;;;4978360;28;20563;-75
2022/02/12 11:57:17;;;;;;;10.65;6.63;;;6.20;48.70;;;;;;4978721;28;20213;-74
2022/02/12 11:59:44;;;;;;;8.27;5.88;;;6.20;48.10;;;;;;4978438;28;20216;-76
2022/02/12 12:02:38;;;;;;;9.65;6.47;;;6.00;49.40;;;;;;4975842;28;20227;-75
2022/02/12 12:05:19;;;;;;;7.00;5.60;;;6.00;49.20;;;;;;4984875;28;20621;-75
2022/02/12 12:08:10;;;;;;;10.00;5.57;;;6.20;49.10;;;;;;4996828;28;20213;-74
2022/02/12 12:10:38;;;;;;;12.55;5.95;;;6.20;46.90;;;;;;4989636;28;20655;-74
2022/02/12 12:13:40;;;;;;;9.82;5.97;;;6.40;47.10;;;;;;4979585;28;20273;-76
2022/02/12 12:16:23;;;;;;;10.10;6.38;;;6.60;47.30;;;;;;4976408;28;20234;-76
2022/02/12 12:18:50;;;;;;;10.48;6.13;;;6.70;47.40;;;;;;4976768;28;20310;-76
2022/02/12 12:21:19;;;;;;;9.10;5.70;;;6.70;47.30;;;;;;4976655;28;20234;-75
2022/02/12 12:23:57;;;;;;;10.18;5.55;;;6.80;46.30;;;;;;4976058;28;20206;-75
2022/02/12 12:26:36;;;;;;;7.80;5.75;;;6.90;47.00;;;;;;4976440;28;20220;-75
2022/02/12 12:31:53;;;;;;;12.50;6.10;;;6.90;43.40;;;;;;4985640;28;20254;-77
2022/02/12 12:34:20;;;;;;;11.02;5.78;;;7.20;42.60;;;;;;4991764;28;20322;-77
2022/02/12 12:36:48;;;;;;;8.73;5.68;;;7.10;42.90;;;;;;4993092;28;20230;-77
2022/02/12 12:39:15;;;;;;;10.73;5.63;;;7.10;42.90;;;;;;4995790;28;20201;-77
2022/02/12 12:41:43;;;;;;;14.23;5.80;;;6.80;42.60;;;;;;4990938;28;20231;-78
2022/02/12 12:44:12;;;;;;;8.48;5.80;;;7.00;42.80;;;;;;4982649;28;20306;-77
2022/02/12 12:46:41;;;;;;;8.80;5.82;;;7.10;42.70;;;;;;4982863;28;20623;-78
2022/02/12 12:49:09;;;;;;;7.22;5.15;;;7.10;42.30;;;;;;4986151;28;20215;-76
2022/02/12 12:51:37;;;;;;;7.57;5.53;;;7.20;41.80;;;;;;4989526;28;20274;-75
2022/02/12 12:54:05;;;;;;;12.80;6.47;;;7.10;42.90;;;;;;4985032;28;20232;-77